Time;durP1;ratioP1;P1;durP2;ratioP2;P2;SDS_P1;SDS_P2;PMS_P1;PMS_P2;Temp;Humidity;BMP_temperature;BMP_pressure;BME280_temperature;BME280_humidity;BME280_pressure;Samples;Min_cycle;Max_cycle;Signal;HPM_P1;HPM_P2
2021/12/14 00:00:20;;;;;;;58.70;28.57;;;;;;;3.02;89.92;101641.33;1710462;83;21052;-70
2021/12/14 00:02:48;;;;;;;55.92;28.02;;;;;;;3.01;89.93;101644.89;1710728;83;21541;-70
2021/12/14 00:05:15;;;;;;;54.03;29.05;;;;;;;3.00;89.94;101637.91;1726639;82;21152;-70
2021/12/14 00:07:41;;;;;;;58.65;30.57;;;;;;;3.02;89.96;101634.73;1703714;83;21019;-69
2021/12/14 00:10:43;;;;;;;50.88;26.73;;;;;;;3.03;89.99;101629.00;1703840;83;21025;-70
2021/12/14 00:13:06;;;;;;;50.88;27.25;;;;;;;3.08;89.97;101637.00;1700722;84;21093;-69
2021/12/14 00:15:14;;;;;;;46.02;25.92;;;;;;;3.17;89.96;101636.44;1696496;84;21049;-70
2021/12/14 00:17:45;;;;;;;49.05;26.48;;;;;;;3.24;89.96;101635.12;1706741;83;21633;-70
2021/12/14 00:20:22;;;;;;;50.33;27.98;;;;;;;3.30;89.95;101630.82;1718247;82;21086;-70
2021/12/14 00:25:28;;;;;;;52.20;26.70;;;;;;;3.36;89.95;101632.22;1718854;83;21059;-70
2021/12/14 00:27:54;;;;;;;52.90;27.00;;;;;;;3.36;89.98;101630.44;1698114;83;21056;-70
2021/12/14 00:30:20;;;;;;;43.78;24.65;;;;;;;3.37;90.00;101629.51;1724007;83;21106;-71
2021/12/14 00:32:46;;;;;;;56.77;27.55;;;;;;;3.37;89.98;101638.73;1722499;83;21053;-70
2021/12/14 00:35:13;;;;;;;67.60;31.52;;;;;;;3.41;90.00;101636.76;1718322;83;20984;-70
2021/12/14 00:37:45;;;;;;;62.15;30.57;;;;;;;3.36;90.00;101639.66;1717789;83;21052;-70
2021/12/14 00:40:25;;;;;;;53.87;28.05;;;;;;;3.30;89.97;101643.15;1717975;83;21592;-70
2021/12/14 00:42:51;;;;;;;49.40;25.23;;;;;;;3.27;89.96;101644.16;1715631;83;21032;-70
2021/12/14 00:45:18;;;;;;;50.33;24.98;;;;;;;3.25;89.99;101646.05;1721125;83;21758;-70
2021/12/14 00:47:44;;;;;;;43.55;24.32;;;;;;;3.25;89.99;101648.69;1721387;83;21044;-70
2021/12/14 00:50:10;;;;;;;44.73;23.75;;;;;;;3.32;90.01;101646.53;1720772;82;20873;-70
2021/12/14 00:52:36;;;;;;;53.08;27.37;;;;;;;3.31;90.05;101646.99;1726700;83;20925;-70
2021/12/14 00:55:04;;;;;;;55.63;28.75;;;;;;;3.29;90.03;101643.62;1726914;83;21659;-70
2021/12/14 00:57:31;;;;;;;56.83;28.23;;;;;;;3.29;90.04;101649.35;1726487;83;21001;-70
2021/12/14 00:59:57;;;;;;;54.67;28.45;;;;;;;3.27;90.03;101646.80;1727043;83;21020;-70
2021/12/14 01:02:24;;;;;;;80.22;35.35;;;;;;;3.25;90.02;101642.10;1726824;83;20949;-70
2021/12/14 01:04:57;;;;;;;66.67;34.15;;;;;;;3.24;90.02;101641.72;1723114;83;21553;-70
2021/12/14 01:07:26;;;;;;;65.70;31.48;;;;;;;3.22;90.02;101642.29;1721863;83;21337;-70
2021/12/14 01:09:56;;;;;;;61.27;31.00;;;;;;;3.22;90.02;101639.66;1727505;83;20985;-70
2021/12/14 01:12:36;;;;;;;63.65;29.85;;;;;;;3.23;90.02;101638.72;1726900;82;21024;-70
2021/12/14 01:15:12;;;;;;;56.25;28.70;;;;;;;3.23;90.03;101641.83;1709687;83;21190;-70
2021/12/14 01:17:55;;;;;;;61.73;30.30;;;;;;;3.24;90.02;101636.44;1711412;83;21075;-70
2021/12/14 01:20:09;;;;;;;45.92;22.62;;;;;;;3.31;90.04;101640.41;1709780;83;25287;-70
2021/12/14 01:22:47;;;;;;;43.50;22.13;;;;;;;3.37;90.03;101645.33;1701823;83;21006;-70
2021/12/14 01:25:26;;;;;;;31.42;16.65;;;;;;;3.45;90.03;101649.64;1682580;85;21002;-70
2021/12/14 01:27:58;;;;;;;;;;;;;;;3.52;90.01;101649.64;1689416;83;21094;-71
2021/12/14 01:30:48;;;;;;;29.40;17.35;;;;;;;3.57;90.01;101648.52;1734139;82;20160;-70
2021/12/14 01:33:12;;;;;;;39.65;20.57;;;;;;;3.59;90.01;101649.28;1710130;83;21159;-71
2021/12/14 01:35:40;;;;;;;78.37;37.58;;;;;;;3.60;90.00;101653.59;1711434;82;21042;-71
2021/12/14 01:38:31;;;;;;;80.03;37.85;;;;;;;3.60;90.00;101650.48;1711814;83;21078;-71
2021/12/14 01:40:54;;;;;;;65.20;31.05;;;;;;;3.63;89.99;101656.04;1710755;83;21575;-70
2021/12/14 01:43:29;;;;;;;41.85;20.82;;;;;;;3.67;90.03;101653.13;1698440;83;21023;-70
2021/12/14 01:45:56;;;;;;;61.45;26.75;;;;;;;3.72;90.04;101652.85;1677132;85;21202;-70
2021/12/14 01:48:22;;;;;;;66.75;30.57;;;;;;;3.74;90.04;101654.91;1677611;85;21010;-70
2021/12/14 01:50:53;;;;;;;61.65;29.80;;;;;;;3.69;90.07;101653.90;1677440;84;20894;-70
2021/12/14 01:53:20;;;;;;;68.10;28.57;;;;;;;3.66;90.09;101654.56;1679362;84;21029;-70
2021/12/14 01:55:51;;;;;;;60.15;26.90;;;;;;;3.61;90.11;101650.87;1706028;84;21039;-70
2021/12/14 01:58:14;;;;;;;66.35;26.95;;;;;;;3.59;90.12;101650.11;1703922;83;21156;-70
2021/12/14 02:01:00;;;;;;;54.88;24.95;;;;;;;3.57;90.11;101647.20;1706180;84;20979;-70
2021/12/14 02:03:33;;;;;;;54.18;24.32;;;;;;;3.59;90.14;101641.38;1703982;84;21012;-70
2021/12/14 02:05:59;;;;;;;52.55;27.82;;;;;;;3.57;90.11;101645.88;1679509;84;21522;-70
2021/12/14 02:08:28;;;;;;;62.25;29.55;;;;;;;3.56;90.12;101644.17;1677273;85;20872;-70
2021/12/14 02:10:55;;;;;;;71.07;30.65;;;;;;;3.55;90.12;101640.72;1677668;85;21105;-70
2021/12/14 02:13:33;;;;;;;60.50;28.95;;;;;;;3.55;90.12;101638.08;1677458;85;21030;-71
2021/12/14 02:16:00;;;;;;;80.38;33.18;;;;;;;3.57;90.10;101640.60;1677440;85;21010;-70
2021/12/14 02:18:27;;;;;;;88.60;38.48;;;;;;;3.59;90.13;101636.09;1677598;85;21006;-70
2021/12/14 02:20:58;;;;;;;101.10;38.40;;;;;;;3.52;90.09;101631.18;1679565;84;21022;-70
2021/12/14 02:23:24;;;;;;;120.62;51.02;;;;;;;3.51;90.11;101633.47;1677489;85;21161;-70
2021/12/14 02:25:51;;;;;;;116.85;51.13;;;;;;;3.55;90.13;101635.91;1677117;85;20876;-70
2021/12/14 02:28:18;;;;;;;103.45;46.25;;;;;;;3.59;90.14;101644.02;1677530;85;21010;-70
2021/12/14 02:30:46;;;;;;;89.58;41.20;;;;;;;3.62;90.13;101634.59;1677605;85;20970;-70
2021/12/14 02:33:23;;;;;;;96.72;43.33;;;;;;;3.60;90.17;101635.98;1677395;85;20986;-70
2021/12/14 02:35:49;;;;;;;80.12;35.58;;;;;;;3.59;90.20;101635.60;1677754;84;21043;-70
2021/12/14 02:38:17;;;;;;;58.23;25.60;;;;;;;3.57;90.19;101639.28;1677439;85;21034;-71
2021/12/14 02:40:55;;;;;;;69.27;28.32;;;;;;;3.58;90.16;101627.33;1677375;85;21053;-71
2021/12/14 02:43:38;;;;;;;93.50;36.77;;;;;;;3.65;90.14;101630.44;1679353;84;21010;-70
2021/12/14 02:46:15;;;;;;;95.97;40.60;;;;;;;3.64;90.10;101623.45;1676603;85;20992;-70
2021/12/14 02:48:44;;;;;;;84.32;35.33;;;;;;;3.59;90.11;101614.50;1677732;84;21088;-70
2021/12/14 02:51:24;;;;;;;74.27;31.83;;;;;;;3.56;90.09;101616.48;1677500;85;21042;-70
2021/12/14 02:53:53;;;;;;;62.43;24.95;;;;;;;3.60;90.10;101611.40;1690385;84;21607;-70
2021/12/14 02:56:22;;;;;;;67.82;26.57;;;;;;;3.58;90.08;101614.61;1705697;84;21055;-70
2021/12/14 02:58:48;;;;;;;64.60;29.50;;;;;;;3.59;90.10;101616.32;1706140;84;21035;-70
2021/12/14 03:01:14;;;;;;;75.62;31.30;;;;;;;3.60;90.14;101614.89;1706207;84;21085;-70
2021/12/14 03:03:40;;;;;;;55.98;25.70;;;;;;;3.65;90.15;101619.88;1706160;83;21015;-70
2021/12/14 03:06:09;;;;;;;66.22;26.70;;;;;;;3.66;90.13;101620.27;1706108;84;21158;-70
2021/12/14 03:08:43;;;;;;;60.10;30.95;;;;;;;3.66;90.13;101619.77;1706104;83;21035;-70
2021/12/14 03:11:11;;;;;;;59.10;26.82;;;;;;;3.67;90.13;101619.30;1705781;83;21007;-70
2021/12/14 03:13:44;;;;;;;44.93;22.58;;;;;;;3.66;90.14;101613.67;1706309;84;21169;-70
2021/12/14 03:16:17;;;;;;;70.83;34.92;;;;;;;3.64;90.16;101610.27;1705938;84;21019;-70
2021/12/14 03:18:47;;;;;;;79.03;36.23;;;;;;;3.63;90.16;101608.56;1706272;84;21012;-71
2021/12/14 03:21:24;;;;;;;76.85;36.05;;;;;;;3.59;90.15;101612.36;1706171;84;21075;-70
2021/12/14 03:23:59;;;;;;;102.87;48.38;;;;;;;3.59;90.19;101611.05;1687194;83;20998;-71
2021/12/14 03:26:28;;;;;;;101.80;48.13;;;;;;;3.57;90.20;101609.81;1677415;85;21250;-70
2021/12/14 03:28:58;;;;;;;97.93;46.50;;;;;;;3.55;90.19;101610.85;1677806;85;20992;-71
2021/12/14 03:31:28;;;;;;;73.85;37.15;;;;;;;3.51;90.20;101600.50;1671706;85;21010;-70
2021/12/14 03:34:11;;;;;;;61.28;32.55;;;;;;;3.50;90.16;101600.12;1687444;84;21507;-71
2021/12/14 03:36:42;;;;;;;72.75;35.38;;;;;;;3.51;90.18;101599.18;1706160;84;21103;-71
2021/12/14 03:39:15;;;;;;;55.80;28.12;;;;;;;3.50;90.17;101601.44;1706318;82;21156;-71
2021/12/14 03:41:50;;;;;;;59.73;29.82;;;;;;;3.49;90.17;101598.88;1706155;84;21067;-71
2021/12/14 03:44:23;;;;;;;58.80;31.70;;;;;;;3.50;90.15;101596.16;1706055;83;21519;-70
2021/12/14 03:47:00;;;;;;;58.75;26.42;;;;;;;3.56;90.18;101596.23;1700922;84;21530;-71
2021/12/14 03:49:34;;;;;;;53.58;26.27;;;;;;;3.61;90.21;101592.85;1707349;83;21022;-70
2021/12/14 03:52:00;;;;;;;52.08;25.00;;;;;;;3.65;90.18;101598.31;1707337;82;21121;-71
2021/12/14 03:54:26;;;;;;;50.33;25.27;;;;;;;3.71;90.19;101591.80;1704941;83;21633;-71
2021/12/14 03:56:53;;;;;;;46.80;23.18;;;;;;;3.75;90.19;101594.15;1678609;85;21066;-71
2021/12/14 03:59:19;;;;;;;40.90;19.35;;;;;;;3.80;90.20;101592.55;1678832;85;21027;-71
2021/12/14 04:01:46;;;;;;;37.90;15.08;;;;;;;3.86;90.21;101586.88;1679113;85;21578;-71
2021/12/14 04:04:19;;;;;;;39.63;20.32;;;;;;;3.93;90.21;101585.54;1678686;84;21713;-71
2021/12/14 04:06:49;;;;;;;36.17;20.05;;;;;;;4.00;90.19;101582.87;1679050;85;21577;-71
2021/12/14 04:09:16;;;;;;;40.55;20.55;;;;;;;3.99;90.19;101583.81;1652671;85;21035;-70
2021/12/14 04:11:42;;;;;;;44.90;21.30;;;;;;;3.98;90.19;101592.20;1690547;84;21071;-70
2021/12/14 04:14:09;;;;;;;59.40;24.67;;;;;;;4.01;90.20;101588.54;1678595;85;21045;-71
2021/12/14 04:16:36;;;;;;;58.28;29.45;;;;;;;4.00;90.25;101584.20;1690472;84;21763;-70
2021/12/14 04:19:06;;;;;;;61.37;28.05;;;;;;;3.99;90.24;101573.26;1690601;84;21031;-71
2021/12/14 04:21:34;;;;;;;61.30;27.73;;;;;;;3.95;90.25;101576.57;1678150;84;21038;-70
2021/12/14 04:24:00;;;;;;;79.12;39.08;;;;;;;3.92;90.26;101570.64;1719081;83;21026;-70
2021/12/14 04:26:27;;;;;;;69.00;30.57;;;;;;;3.88;90.24;101565.18;1719568;83;20969;-70
2021/12/14 04:28:56;;;;;;;52.85;26.65;;;;;;;3.83;90.25;101565.97;1719310;83;21104;-70
2021/12/14 04:31:22;;;;;;;61.65;29.98;;;;;;;3.81;90.26;101570.48;1719663;83;21026;-70
2021/12/14 04:33:49;;;;;;;67.08;31.40;;;;;;;3.77;90.25;101557.10;1708096;83;21010;-70
2021/12/14 04:36:19;;;;;;;58.08;29.57;;;;;;;3.71;90.27;101553.55;1675685;85;21494;-70
2021/12/14 04:38:59;;;;;;;65.97;32.03;;;;;;;3.66;90.26;101556.97;1703842;84;20998;-71
2021/12/14 04:52:25;;;;;;;72.30;34.85;;;;;;;3.65;90.28;101557.90;1727640;83;21047;-71
2021/12/14 04:54:58;;;;;;;48.03;27.23;;;;;;;3.65;90.27;101551.31;1728457;83;21145;-71
2021/12/14 04:57:36;;;;;;;51.70;25.55;;;;;;;3.64;90.28;101549.60;1731309;82;21557;-70
2021/12/14 05:00:28;;;;;;;53.68;25.02;;;;;;;3.65;90.28;101553.48;1705942;84;21232;-70
2021/12/14 05:02:57;;;;;;;55.05;25.20;;;;;;;3.68;90.30;101551.11;1706220;84;21027;-70
2021/12/14 05:05:28;;;;;;;55.25;26.60;;;;;;;3.68;90.33;101547.16;1706316;84;21102;-70
2021/12/14 05:10:37;;;;;;;64.65;32.73;;;;;;;3.68;90.31;101555.06;1706032;84;21003;-70
2021/12/14 05:13:03;;;;;;;66.40;39.78;;;;;;;3.70;90.35;101549.20;1708076;82;21018;-70
2021/12/14 05:15:29;;;;;;;73.00;40.85;;;;;;;3.72;90.36;101551.29;1706203;84;21118;-71
2021/12/14 05:17:55;;;;;;;69.05;36.10;;;;;;;3.72;90.35;101548.66;1706304;82;21072;-70
2021/12/14 05:20:21;;;;;;;73.62;40.28;;;;;;;3.76;90.34;101543.09;1706246;84;21185;-70
2021/12/14 05:22:47;;;;;;;63.63;35.70;;;;;;;3.78;90.33;101545.15;1706469;82;21050;-71
2021/12/14 05:25:21;;;;;;;57.30;32.65;;;;;;;3.78;90.34;101540.34;1707496;82;21041;-70
2021/12/14 05:27:50;;;;;;;53.63;27.87;;;;;;;3.76;90.36;101529.91;1706248;84;21015;-71
2021/12/14 05:30:22;;;;;;;46.65;25.88;;;;;;;3.78;90.33;101527.14;1706281;84;21016;-71
2021/12/14 05:32:49;;;;;;;45.43;24.20;;;;;;;3.81;90.35;101533.54;1705870;83;21137;-71
2021/12/14 05:35:18;;;;;;;45.73;25.45;;;;;;;3.83;90.35;101532.98;1705962;84;21079;-71
2021/12/14 05:37:48;;;;;;;51.83;27.07;;;;;;;3.88;90.35;101529.56;1706160;84;21068;-71
2021/12/14 05:40:23;;;;;;;50.78;26.87;;;;;;;3.91;90.36;101526.72;1706278;83;21027;-71
2021/12/14 05:45:26;;;;;;;49.50;26.33;;;;;;;3.99;90.35;101527.08;1700585;83;21792;-70
2021/12/14 05:47:55;;;;;;;36.42;22.85;;;;;;;3.98;90.34;101528.02;1682782;85;20882;-70
2021/12/14 05:50:30;;;;;;;37.58;20.10;;;;;;;3.97;90.38;101526.34;1683044;84;21585;-71
2021/12/14 05:52:57;;;;;;;36.80;22.37;;;;;;;3.95;90.37;101518.52;1682918;85;21049;-71
2021/12/14 05:55:26;;;;;;;33.42;20.43;;;;;;;3.99;90.39;101524.44;1682851;85;21103;-71
2021/12/14 05:57:53;;;;;;;37.40;23.27;;;;;;;3.98;90.40;101521.41;1683157;85;21140;-71
2021/12/14 06:00:19;;;;;;;32.90;20.62;;;;;;;4.01;90.43;101523.88;1682502;83;21124;-71
2021/12/14 06:02:45;;;;;;;32.58;20.10;;;;;;;4.05;90.44;101531.13;1684680;83;21583;-71
2021/12/14 06:05:17;;;;;;;35.78;20.48;;;;;;;4.11;90.45;101535.99;1711355;83;21499;-70
2021/12/14 06:07:43;;;;;;;33.60;16.77;;;;;;;4.14;90.47;101537.95;1696318;83;21571;-71
2021/12/14 06:10:10;;;;;;;31.60;17.80;;;;;;;4.22;90.50;101526.39;1683035;85;21162;-70
2021/12/14 06:12:36;;;;;;;35.38;19.07;;;;;;;4.38;90.48;101521.80;1683034;85;21080;-70
2021/12/14 06:15:04;;;;;;;33.90;19.25;;;;;;;4.59;90.47;101519.51;1683096;85;21069;-71
2021/12/14 06:17:33;;;;;;;33.73;20.43;;;;;;;4.74;90.45;101515.83;1689471;83;21021;-71
2021/12/14 06:20:13;;;;;;;41.88;21.00;;;;;;;4.84;90.43;101516.88;1709545;82;21021;-70
2021/12/14 06:22:39;;;;;;;34.13;18.23;;;;;;;4.91;90.44;101514.66;1711456;83;21111;-71
2021/12/14 06:25:16;;;;;;;44.25;23.67;;;;;;;4.98;90.46;101514.60;1711061;83;21548;-70
2021/12/14 06:27:43;;;;;;;40.98;21.23;;;;;;;5.02;90.46;101514.29;1711511;83;21021;-71
2021/12/14 06:30:22;;;;;;;33.58;20.23;;;;;;;5.08;90.49;101516.97;1711421;83;21049;-71
2021/12/14 06:33:03;;;;;;;34.33;19.70;;;;;;;5.11;90.51;101506.17;1735747;82;21089;-71
2021/12/14 06:35:35;;;;;;;35.45;19.27;;;;;;;5.13;90.53;101501.64;1711211;82;21125;-71
2021/12/14 06:38:26;;;;;;;35.92;20.48;;;;;;;5.15;90.53;101503.69;1709232;83;21010;-71
2021/12/14 06:41:12;;;;;;;39.53;22.10;;;;;;;5.15;90.54;101494.44;1695446;82;21037;-71
2021/12/14 06:43:52;;;;;;;33.48;18.85;;;;;;;5.16;90.57;101496.14;1711286;83;21041;-71
2021/12/14 06:46:23;;;;;;;32.20;18.02;;;;;;;5.19;90.58;101495.91;1711326;83;21402;-71
2021/12/14 06:49:06;;;;;;;39.35;23.85;;;;;;;5.19;90.59;101501.20;1711355;83;21069;-70
2021/12/14 06:51:46;;;;;;;41.95;25.10;;;;;;;5.20;90.62;101497.61;1710980;83;21115;-71
2021/12/14 06:54:18;;;;;;;39.65;23.77;;;;;;;5.22;90.62;101503.63;1720153;82;21115;-71
2021/12/14 06:56:53;;;;;;;33.92;20.17;;;;;;;5.24;90.64;101504.34;1705480;82;21747;-71
2021/12/14 06:59:22;;;;;;;40.58;23.18;;;;;;;5.24;90.65;101496.41;1704928;83;21577;-71
2021/12/14 07:01:54;;;;;;;58.50;29.97;;;;;;;5.24;90.66;101498.24;1682192;85;21553;-71
2021/12/14 07:04:32;;;;;;;60.12;31.12;;;;;;;5.24;90.69;101502.20;1681732;84;21600;-70
2021/12/14 07:07:01;;;;;;;47.43;26.57;;;;;;;5.24;90.67;101501.70;1681785;85;21039;-70
2021/12/14 07:09:33;;;;;;;39.35;22.65;;;;;;;5.25;90.71;101519.27;1678360;84;21535;-70
2021/12/14 07:12:03;;;;;;;45.75;25.95;;;;;;;5.26;90.73;101520.97;1678444;84;21129;-70
2021/12/14 07:14:39;;;;;;;35.08;21.85;;;;;;;5.26;90.73;101526.73;1674466;84;21572;-70
2021/12/14 07:17:15;;;;;;;37.23;22.02;;;;;;;5.27;90.73;101527.95;1674615;84;21621;-71
2021/12/14 07:19:46;;;;;;;39.38;24.25;;;;;;;5.29;90.73;101533.12;1677669;85;21113;-70
2021/12/14 07:22:31;;;;;;;62.50;35.05;;;;;;;5.31;90.75;101538.66;1685396;85;21033;-71
2021/12/14 07:25:12;;;;;;;66.75;34.30;;;;;;;5.30;90.75;101533.03;1696451;84;21042;-70
2021/12/14 07:27:43;;;;;;;68.80;34.70;;;;;;;5.32;90.76;101540.83;1696834;84;21173;-70
2021/12/14 07:30:32;;;;;;;51.95;27.20;;;;;;;5.33;90.76;101531.48;1696608;84;21133;-70
2021/12/14 07:33:20;;;;;;;82.42;38.75;;;;;;;5.33;90.76;101534.13;1678956;84;21078;-70
2021/12/14 07:35:51;;;;;;;73.57;35.23;;;;;;;5.33;90.76;101540.74;1668270;86;21026;-70
2021/12/14 07:38:25;;;;;;;87.33;41.48;;;;;;;5.32;90.76;101540.36;1668646;86;21133;-70
2021/12/14 07:40:59;;;;;;;82.65;40.88;;;;;;;5.32;90.77;101540.36;1668674;86;21103;-71
2021/12/14 07:43:34;;;;;;;67.67;35.05;;;;;;;5.32;90.81;101545.66;1672146;84;21106;-71
2021/12/14 07:45:59;;;;;;;74.45;37.93;;;;;;;5.33;90.80;101546.03;1707652;83;21126;-70
2021/12/14 07:48:48;;;;;;;50.15;27.45;;;;;;;5.34;90.80;101547.73;1705564;84;21047;-70
2021/12/14 07:51:16;;;;;;;38.78;23.30;;;;;;;5.34;90.80;101546.41;1699671;84;21026;-70
2021/12/14 07:53:49;;;;;;;34.33;21.70;;;;;;;5.33;90.80;101539.89;1677576;85;21170;-70
2021/12/14 07:56:32;;;;;;;38.55;23.38;;;;;;;5.33;90.81;101542.06;1677388;84;21050;-70
2021/12/14 07:58:58;;;;;;;39.45;23.80;;;;;;;5.37;90.83;101543.55;1684311;84;21047;-70
2021/12/14 08:01:25;;;;;;;37.03;21.82;;;;;;;5.37;90.84;101547.51;1687769;84;20986;-70
2021/12/14 08:04:06;;;;;;;38.90;23.38;;;;;;;5.35;90.85;101542.78;1707204;82;21117;-70
2021/12/14 08:06:54;;;;;;;37.15;20.85;;;;;;;5.34;90.85;101550.38;1708254;82;21093;-70
2021/12/14 08:09:53;;;;;;;34.83;20.68;;;;;;;5.35;90.83;101545.91;1704482;82;21077;-70
2021/12/14 08:12:31;;;;;;;39.92;24.35;;;;;;;5.34;90.84;101540.27;1693754;84;21029;-70
2021/12/14 08:15:20;;;;;;;34.30;21.42;;;;;;;5.36;90.84;101540.52;1721593;83;21087;-71
2021/12/14 08:17:59;;;;;;;29.55;16.60;;;;;;;5.36;90.87;101535.23;1688558;84;21121;-71
2021/12/14 08:20:26;;;;;;;46.50;24.30;;;;;;;5.37;90.87;101538.73;1690487;84;21794;-71
2021/12/14 08:22:56;;;;;;;44.58;25.00;;;;;;;5.40;90.89;101531.89;1690443;83;21050;-71
2021/12/14 08:25:25;;;;;;;;;;;;;;;5.40;90.88;101539.36;1695896;84;21137;-71
2021/12/14 08:28:05;;;;;;;42.90;25.17;;;;;;;5.41;90.88;101535.77;1691736;84;20198;-70
2021/12/14 08:30:32;;;;;;;60.78;35.45;;;;;;;5.43;90.89;101535.64;1676531;85;21076;-70
2021/12/14 08:33:02;;;;;;;68.30;36.15;;;;;;;5.41;90.90;101530.47;1723887;83;21150;-71
2021/12/14 08:35:26;;;;;;;61.92;29.65;;;;;;;5.43;90.90;101526.38;1716294;82;21013;-71
2021/12/14 08:37:57;;;;;;;105.92;43.78;;;;;;;5.42;90.92;101524.20;1713018;82;21086;-71
2021/12/14 08:40:35;;;;;;;94.07;40.75;;;;;;;5.43;90.92;101524.58;1720630;82;21014;-71
2021/12/14 08:43:12;;;;;;;146.62;60.85;;;;;;;5.42;90.90;101520.23;1710137;82;21116;-71
2021/12/14 08:45:39;;;;;;;142.68;58.98;;;;;;;5.41;90.91;101525.66;1706210;82;21166;-71
2021/12/14 08:48:30;;;;;;;152.10;60.15;;;;;;;5.41;90.90;101527.83;1684710;84;21124;-71
2021/12/14 08:51:02;;;;;;;144.25;56.90;;;;;;;5.41;90.91;101529.15;1670454;85;21034;-71
2021/12/14 08:53:33;;;;;;;133.47;53.75;;;;;;;5.43;90.91;101528.55;1691043;83;21034;-71
2021/12/14 08:56:00;;;;;;;152.45;58.38;;;;;;;5.43;90.93;101529.88;1699145;83;21081;-71
2021/12/14 08:58:27;;;;;;;116.65;49.95;;;;;;;5.43;90.93;101523.27;1659589;85;21613;-71
2021/12/14 09:00:58;;;;;;;117.55;47.98;;;;;;;5.44;90.94;101530.25;1670950;85;21073;-71
2021/12/14 09:03:32;;;;;;;133.05;51.13;;;;;;;5.45;90.93;101538.53;1680238;84;21066;-71
2021/12/14 09:05:58;;;;;;;83.10;38.30;;;;;;;5.45;90.94;101541.17;1677549;85;21079;-71
2021/12/14 09:08:24;;;;;;;75.70;34.40;;;;;;;5.47;90.95;101542.41;1679639;85;21022;-71
2021/12/14 09:10:52;;;;;;;79.12;36.88;;;;;;;5.48;90.94;101542.78;1666978;85;21093;-71
2021/12/14 09:13:18;;;;;;;50.00;28.42;;;;;;;5.47;90.94;101545.90;1672904;85;21104;-71
2021/12/14 09:16:05;;;;;;;46.28;27.62;;;;;;;5.49;90.93;101554.55;1689988;84;21024;-71
2021/12/14 09:18:35;;;;;;;50.90;31.55;;;;;;;5.49;90.94;101547.95;1670855;84;21949;-71
2021/12/14 09:21:06;;;;;;;63.13;38.65;;;;;;;5.51;90.96;101545.20;1667712;85;21775;-71
2021/12/14 09:23:36;;;;;;;55.25;33.20;;;;;;;5.51;90.95;101547.38;1666339;85;21844;-72
2021/12/14 09:26:07;;;;;;;59.63;32.58;;;;;;;5.50;90.94;101549.64;1671522;85;23410;-71
2021/12/14 09:28:35;;;;;;;53.78;28.95;;;;;;;5.50;90.94;101548.32;1669615;85;21045;-71
2021/12/14 09:31:06;;;;;;;57.10;28.07;;;;;;;5.48;90.96;101542.31;1671595;85;21070;-71
2021/12/14 09:33:35;;;;;;;43.60;24.02;;;;;;;5.48;90.95;101548.92;1668670;85;21586;-71
2021/12/14 09:36:00;;;;;;;48.98;24.43;;;;;;;5.48;90.94;101538.34;1672351;84;21973;-71
2021/12/14 09:38:35;;;;;;;42.38;23.35;;;;;;;5.46;90.96;101546.84;1673165;84;21033;-71
2021/12/14 09:40:57;;;;;;;44.70;23.90;;;;;;;5.49;90.96;101549.73;1664693;85;21038;-71
2021/12/14 09:43:23;;;;;;;48.48;24.77;;;;;;;5.47;90.97;101548.55;1671031;85;21082;-71
2021/12/14 09:45:52;;;;;;;43.58;25.05;;;;;;;5.47;90.95;101551.66;1671021;82;21015;-71
2021/12/14 09:48:22;;;;;;;62.13;29.02;;;;;;;5.46;90.94;101551.28;1703257;83;21387;-70
2021/12/14 09:50:49;;;;;;;;;;;;;;;5.46;90.95;101550.81;1694767;83;21571;-71
2021/12/14 09:53:20;;;;;;;55.08;27.15;;;;;;;5.46;90.95;101546.84;1698254;83;20193;-71
2021/12/14 09:55:48;;;;;;;52.08;27.60;;;;;;;5.47;90.95;101538.44;1693831;83;21030;-71
2021/12/14 09:58:19;;;;;;;55.55;27.22;;;;;;;5.46;90.95;101532.77;1696033;83;21019;-71
2021/12/14 10:00:54;;;;;;;51.18;24.65;;;;;;;5.46;90.97;101528.33;1694802;83;21511;-69
2021/12/14 10:03:20;;;;;;;58.92;27.10;;;;;;;5.45;90.96;101529.27;1694668;83;21597;-69
2021/12/14 10:05:51;;;;;;;68.45;28.47;;;;;;;5.46;90.96;101520.39;1692742;83;20956;-69
2021/12/14 10:08:22;;;;;;;40.52;22.40;;;;;;;5.46;90.96;101515.10;1704090;83;21023;-70
2021/12/14 10:11:03;;;;;;;72.75;32.10;;;;;;;5.47;90.95;101516.80;1694680;83;21425;-70
2021/12/14 10:13:26;;;;;;;55.08;22.98;;;;;;;5.48;90.94;101515.86;1694354;83;21050;-70
2021/12/14 10:15:53;;;;;;;48.83;24.60;;;;;;;5.48;90.95;101518.50;1695310;83;21049;-70
2021/12/14 10:18:30;;;;;;;40.15;21.10;;;;;;;5.49;90.95;101525.93;1694516;83;21300;-70
2021/12/14 10:21:07;;;;;;;49.15;22.95;;;;;;;5.49;90.95;101529.42;1707957;83;21035;-70
2021/12/14 10:23:34;;;;;;;37.55;20.68;;;;;;;5.49;90.94;101520.17;1687852;84;21158;-70
2021/12/14 10:26:01;;;;;;;44.33;22.90;;;;;;;5.50;90.93;101519.69;1694405;84;21066;-70
2021/12/14 10:28:29;;;;;;;42.58;21.30;;;;;;;5.50;90.93;101519.22;1681134;84;21105;-70
2021/12/14 10:31:00;;;;;;;42.50;20.97;;;;;;;5.51;90.95;101516.95;1657671;85;21092;-70
2021/12/14 10:33:28;;;;;;;38.30;19.87;;;;;;;5.52;90.95;101517.80;1677622;84;21050;-71
2021/12/14 10:36:00;;;;;;;37.10;19.45;;;;;;;5.54;90.94;101518.05;1702441;83;21091;-70
2021/12/14 10:38:37;;;;;;;37.15;22.98;;;;;;;5.54;90.94;101519.38;1704632;83;23091;-70
2021/12/14 10:43:54;;;;;;;34.15;18.75;;;;;;;5.53;90.96;101517.67;1680213;83;20207;-70
2021/12/14 10:46:29;;;;;;;45.43;25.55;;;;;;;5.53;90.95;101511.06;1693123;83;21129;-70
2021/12/14 10:48:56;;;;;;;39.18;21.37;;;;;;;5.53;90.95;101508.41;1665131;86;21018;-70
2021/12/14 10:51:26;;;;;;;40.15;22.65;;;;;;;5.53;90.95;101505.77;1703511;84;21984;-70
2021/12/14 10:53:52;;;;;;;;;;;;;;;5.55;90.95;101506.99;1705254;83;21499;-71
2021/12/14 10:56:26;;;;;;;36.50;23.65;;;;;;;5.54;90.95;101494.23;1706752;82;20187;-70
2021/12/14 10:58:56;;;;;;;41.77;25.92;;;;;;;5.56;90.93;101489.33;1696564;82;21046;-70
2021/12/14 11:01:29;;;;;;;36.35;23.00;;;;;;;5.57;90.94;101484.37;1697118;84;21040;-70
2021/12/14 11:03:56;;;;;;;34.33;19.23;;;;;;;5.57;90.96;101485.70;1705287;82;21041;-70
2021/12/14 11:06:28;;;;;;;29.50;17.55;;;;;;;5.58;90.96;101492.69;1674982;85;21066;-70
2021/12/14 11:09:39;;;;;;;31.07;17.07;;;;;;;5.58;90.96;101499.30;1718186;83;20987;-71
2021/12/14 11:11:38;;;;;;;27.05;16.50;;;;;;;5.60;90.96;101492.09;1689970;83;21009;-70
2021/12/14 11:14:07;;;;;;;25.37;17.05;;;;;;;5.61;90.96;101493.78;1675560;85;21039;-70
2021/12/14 11:19:43;;;;;;;28.30;15.60;;;;;;;5.62;90.96;101498.13;1720966;81;20982;-70
2021/12/14 11:22:16;;;;;;;26.07;16.15;;;;;;;5.62;90.94;101500.78;1694728;84;21579;-70
2021/12/14 11:27:45;;;;;;;26.55;15.70;;;;;;;5.68;90.94;101488.41;1798278;79;22778;-71
2021/12/14 11:30:25;;;;;;;24.30;15.32;;;;;;;5.65;90.93;101492.61;1758053;80;21551;-71
2021/12/14 11:33:05;;;;;;;23.90;14.10;;;;;;;5.64;90.93;101485.63;1775735;79;21545;-71
2021/12/14 11:35:33;;;;;;;25.35;14.80;;;;;;;5.64;90.94;101484.30;1762535;80;21043;-71
2021/12/14 11:38:01;;;;;;;22.55;14.40;;;;;;;5.64;90.94;101476.36;1765318;80;21034;-71
2021/12/14 11:40:29;;;;;;;24.37;13.53;;;;;;;5.63;90.91;101472.86;1757604;80;21017;-71
2021/12/14 11:43:15;;;;;;;22.52;14.03;;;;;;;5.64;90.92;101475.03;1757063;81;21527;-71
2021/12/14 11:45:42;;;;;;;25.88;15.13;;;;;;;5.63;90.91;101478.66;1758000;80;21751;-71
2021/12/14 11:48:08;;;;;;;24.52;14.70;;;;;;;5.64;90.92;101476.36;1758324;81;21613;-71
2021/12/14 11:50:39;;;;;;;23.62;13.80;;;;;;;5.64;90.93;101474.56;1758376;81;21460;-71
2021/12/14 11:53:13;;;;;;;20.10;12.58;;;;;;;5.64;90.89;101473.71;1760886;80;21010;-71
2021/12/14 11:55:52;;;;;;;18.48;11.65;;;;;;;5.65;90.90;101474.09;1771306;80;21547;-71
2021/12/14 11:58:30;;;;;;;21.55;12.78;;;;;;;5.66;90.88;101474.46;1756598;81;21161;-71
2021/12/14 12:01:00;;;;;;;19.12;11.70;;;;;;;5.67;90.87;101481.42;1755445;81;21542;-71
2021/12/14 12:03:43;;;;;;;21.95;13.55;;;;;;;5.67;90.86;101478.30;1788995;80;21009;-71